createdAt,value
2019-02-24T00:00:04.580Z,20.4
2019-02-24T00:00:54.519Z,20.4
2019-02-24T00:01:44.089Z,20.4
2019-02-24T00:02:34.590Z,20.4
2019-02-24T00:03:24.678Z,20.4
2019-02-24T00:04:15.227Z,20.4
2019-02-24T00:05:04.527Z,20.4
2019-02-24T00:05:54.569Z,20.4
2019-02-24T00:06:44.857Z,20.4
2019-02-24T00:07:35.454Z,20.4
2019-02-24T00:08:25.277Z,20.4
2019-02-24T00:09:15.879Z,20.4
2019-02-24T00:10:05.402Z,20.4
2019-02-24T00:10:55.725Z,20.4
2019-02-24T00:11:46.048Z,20.4
2019-02-24T00:12:36.062Z,20.4
2019-02-24T00:13:26.124Z,20.4
2019-02-24T00:14:15.384Z,20.4
2019-02-24T00:15:05.987Z,20.3
2019-02-24T00:15:56.024Z,20.4
2019-02-24T00:16:46.074Z,20.4
2019-02-24T00:17:35.849Z,20.4
2019-02-24T00:18:25.909Z,20.3
2019-02-24T00:19:15.974Z,20.3
2019-02-24T00:20:06.026Z,20.3
2019-02-24T00:20:56.648Z,20.3
2019-02-24T00:21:46.162Z,20.3
2019-02-24T00:22:36.461Z,20.3
2019-02-24T00:23:26.806Z,20.3
2019-02-24T00:24:16.022Z,20.3
2019-02-24T00:25:06.456Z,20.3
2019-02-24T00:25:56.697Z,20.3
2019-02-24T00:26:46.752Z,20.3
2019-02-24T00:27:37.111Z,20.3
2019-02-24T00:28:26.878Z,20.3
2019-02-24T00:29:17.246Z,20.3
2019-02-24T00:30:07.284Z,20.3
2019-02-24T00:30:56.221Z,20.3
2019-02-24T00:31:47.441Z,20.3
2019-02-24T00:32:39.017Z,20.3
2019-02-24T00:33:27.276Z,20.3
2019-02-24T00:34:17.263Z,20.3
2019-02-24T00:35:07.351Z,20.2
2019-02-24T00:35:57.703Z,20.3
2019-02-24T00:36:46.608Z,20.2
2019-02-24T00:37:37.533Z,20.3
2019-02-24T00:38:27.278Z,20.2
2019-02-24T00:39:17.425Z,20.2
2019-02-24T00:40:07.969Z,20.2
2019-02-24T00:40:57.441Z,20.2
2019-02-24T00:41:47.826Z,20.2
2019-02-24T00:42:38.190Z,20.2
2019-02-24T00:43:27.362Z,20.2
2019-02-24T00:44:18.278Z,20.2
2019-02-24T00:45:07.743Z,20.2
2019-02-24T00:45:57.791Z,20.2
2019-02-24T00:46:47.923Z,20.1
2019-02-24T00:47:38.498Z,20.1
2019-02-24T00:48:28.571Z,20.1
2019-02-24T00:49:18.333Z,20.1
2019-02-24T00:50:08.114Z,20.1
2019-02-24T00:50:58.692Z,20.1
2019-02-24T00:51:48.230Z,20.1
2019-02-24T00:52:37.985Z,20.1
2019-02-24T00:53:28.310Z,20.1
2019-02-24T00:54:18.165Z,20.1
2019-02-24T00:55:07.963Z,20.1
2019-02-24T00:55:58.535Z,20.1
2019-02-24T00:56:48.255Z,20.1
2019-02-24T00:57:38.131Z,20.1
2019-02-24T00:58:27.887Z,20.1
2019-02-24T00:59:18.520Z,20.1
2019-02-24T01:00:08.829Z,20.1
2019-02-24T01:00:58.352Z,20.1
2019-02-24T01:01:48.915Z,20.1
2019-02-24T01:02:38.999Z,20.1
2019-02-24T01:03:28.499Z,20
2019-02-24T01:04:18.847Z,20.1
2019-02-24T01:05:08.918Z,20
2019-02-24T01:05:58.666Z,20
2019-02-24T01:06:49.032Z,20
2019-02-24T01:07:38.567Z,20
2019-02-24T01:08:28.571Z,20
2019-02-24T01:09:18.646Z,20
2019-02-24T01:10:08.974Z,20
2019-02-24T01:10:59.352Z,20
2019-02-24T01:11:49.086Z,20
2019-02-24T01:12:39.432Z,20
2019-02-24T01:13:29.199Z,19.9
2019-02-24T01:14:19.321Z,19.9
2019-02-24T01:15:09.884Z,19.9
2019-02-24T01:15:59.923Z,19.9
2019-02-24T01:16:49.720Z,19.9
2019-02-24T01:17:39.767Z,19.9
2019-02-24T01:18:29.536Z,19.9
2019-02-24T01:19:19.074Z,19.9
2019-02-24T01:20:09.934Z,19.9
2019-02-24T01:21:00.346Z,19.9
2019-02-24T01:21:50.056Z,19.9
2019-02-24T01:22:40.093Z,19.9
2019-02-24T01:23:30.211Z,19.9
2019-02-24T01:24:19.949Z,19.9
2019-02-24T01:25:10.608Z,19.9
2019-02-24T01:25:59.774Z,19.9
2019-02-24T01:26:50.592Z,19.9
2019-02-24T01:27:41.236Z,19.9
2019-02-24T01:28:32.010Z,19.9
2019-02-24T01:29:21.064Z,19.9
2019-02-24T01:30:11.401Z,19.9
2019-02-24T01:31:00.408Z,19.9
2019-02-24T01:31:50.456Z,19.9
2019-02-24T01:32:41.543Z,19.9
2019-02-24T01:33:30.808Z,19.9
2019-02-24T01:34:21.435Z,19.9
2019-02-24T01:35:11.229Z,19.9
2019-02-24T01:36:00.658Z,19.9
2019-02-24T01:36:51.830Z,19.9
2019-02-24T01:37:41.382Z,19.9
2019-02-24T01:38:31.453Z,19.9
2019-02-24T01:39:21.170Z,19.8
2019-02-24T01:40:11.590Z,19.8
2019-02-24T01:41:01.552Z,19.8
2019-02-24T01:41:51.460Z,19.8
2019-02-24T01:42:42.232Z,19.8
2019-02-24T01:43:32.005Z,19.8
2019-02-24T01:44:21.079Z,19.8
2019-02-24T01:45:11.933Z,19.8
2019-02-24T01:46:01.904Z,19.8
2019-02-24T01:46:51.767Z,19.8
2019-02-24T01:47:41.280Z,19.8
2019-02-24T01:48:32.342Z,19.8
2019-02-24T01:49:22.212Z,19.8
2019-02-24T01:50:12.225Z,19.8
2019-02-24T01:51:02.525Z,19.8
2019-02-24T01:51:51.836Z,19.8
2019-02-24T01:52:42.184Z,19.8
2019-02-24T01:53:32.974Z,19.8
2019-02-24T01:54:23.059Z,19.8
2019-02-24T01:55:12.527Z,19.7
2019-02-24T01:56:02.064Z,19.8
2019-02-24T01:56:52.458Z,19.8
2019-02-24T01:57:42.977Z,19.7
2019-02-24T01:58:41.572Z,19.7
2019-02-24T01:59:23.421Z,19.7
2019-02-24T02:00:13.176Z,19.7
2019-02-24T02:01:03.227Z,19.7
2019-02-24T02:01:53.266Z,19.7
2019-02-24T02:02:43.064Z,19.7
2019-02-24T02:03:33.141Z,19.6
2019-02-24T02:04:22.631Z,19.6
2019-02-24T02:05:13.234Z,19.6
2019-02-24T02:06:03.567Z,19.6
2019-02-24T02:06:53.332Z,19.6
2019-02-24T02:07:44.009Z,19.6
2019-02-24T02:08:33.766Z,19.6
2019-02-24T02:09:23.913Z,19.6
2019-02-24T02:10:14.149Z,19.6
2019-02-24T02:11:03.725Z,19.6
2019-02-24T02:11:53.463Z,19.6
2019-02-24T02:12:44.013Z,19.6
2019-02-24T02:13:34.114Z,19.6
2019-02-24T02:14:24.149Z,19.6
2019-02-24T02:15:14.189Z,19.6
2019-02-24T02:16:04.531Z,19.6
2019-02-24T02:16:54.586Z,19.6
2019-02-24T02:17:44.135Z,19.6
2019-02-24T02:18:34.179Z,19.6
2019-02-24T02:19:24.743Z,19.6
2019-02-24T02:20:14.790Z,19.6
2019-02-24T02:21:04.598Z,19.6
2019-02-24T02:21:54.708Z,19.6
2019-02-24T02:22:44.748Z,19.6
2019-02-24T02:23:33.920Z,19.6
2019-02-24T02:24:24.826Z,19.6
2019-02-24T02:25:14.116Z,19.6
2019-02-24T02:26:03.895Z,19.6
2019-02-24T02:26:54.038Z,19.6
2019-02-24T02:27:44.611Z,19.6
2019-02-24T02:28:43.575Z,19.6
2019-02-24T02:29:23.837Z,19.6
2019-02-24T02:30:14.966Z,19.6
2019-02-24T02:31:05.628Z,19.6
2019-02-24T02:31:55.386Z,19.6
2019-02-24T02:32:45.436Z,19.5
2019-02-24T02:33:35.460Z,19.5
2019-02-24T02:34:24.962Z,19.5
2019-02-24T02:35:15.630Z,19.6
2019-02-24T02:36:05.397Z,19.6
2019-02-24T02:36:56.005Z,19.5
2019-02-24T02:37:45.745Z,19.5
2019-02-24T02:38:35.255Z,19.5
2019-02-24T02:39:25.947Z,19.5
2019-02-24T02:40:15.927Z,19.5
2019-02-24T02:41:06.030Z,19.5
2019-02-24T02:41:56.123Z,19.5
2019-02-24T02:42:45.837Z,19.5
2019-02-24T02:43:36.137Z,19.5
2019-02-24T02:44:26.505Z,19.4
2019-02-24T02:45:16.554Z,19.4
2019-02-24T02:46:06.077Z,19.4
2019-02-24T02:46:56.702Z,19.4
2019-02-24T02:47:46.467Z,19.4
2019-02-24T02:48:36.556Z,19.4
2019-02-24T02:49:26.274Z,19.4
2019-02-24T02:50:17.024Z,19.4
2019-02-24T02:51:06.764Z,19.4
2019-02-24T02:51:56.750Z,19.4
2019-02-24T02:52:46.834Z,19.4
2019-02-24T02:53:36.884Z,19.4
2019-02-24T02:54:26.391Z,19.4
2019-02-24T02:55:16.689Z,19.4
2019-02-24T02:56:07.077Z,19.4
2019-02-24T02:56:57.349Z,19.4
2019-02-24T02:57:47.416Z,19.4
2019-02-24T02:58:36.402Z,19.4
2019-02-24T02:59:27.544Z,19.4
2019-02-24T03:00:16.818Z,19.4
2019-02-24T03:01:07.066Z,19.4
2019-02-24T03:01:57.431Z,19.4
2019-02-24T03:02:47.201Z,19.4
2019-02-24T03:03:36.446Z,19.4
2019-02-24T03:04:27.318Z,19.3
2019-02-24T03:07:59.824Z,19.3
2019-02-24T03:08:49.857Z,19.3
2019-02-24T03:09:40.463Z,19.3
2019-02-24T03:10:30.164Z,19.3
2019-02-24T03:11:20.863Z,19.3
2019-02-24T03:12:10.388Z,19.3
2019-02-24T03:13:00.706Z,19.3
2019-02-24T03:13:50.150Z,19.3
2019-02-24T03:14:40.535Z,19.3
2019-02-24T03:15:29.982Z,19.3
2019-02-24T03:16:23.568Z,19.3
2019-02-24T03:17:10.722Z,19.3
2019-02-24T03:18:01.282Z,19.3
2019-02-24T03:18:51.100Z,19.3
2019-02-24T03:19:40.575Z,19.3
2019-02-24T03:20:30.894Z,19.3
2019-02-24T03:21:21.348Z,19.3
2019-02-24T03:22:11.288Z,19.3
2019-02-24T03:23:00.510Z,19.3
2019-02-24T03:23:51.446Z,19.3
2019-02-24T03:24:40.738Z,19.2
2019-02-24T03:25:31.567Z,19.2
2019-02-24T03:26:21.347Z,19.2
2019-02-24T03:27:11.385Z,19.2
2019-02-24T03:28:01.195Z,19.2
2019-02-24T03:28:51.499Z,19.2
2019-02-24T03:29:41.312Z,19.2
2019-02-24T03:30:31.480Z,19.2
2019-02-24T03:31:21.612Z,19.2
2019-02-24T03:32:11.818Z,19.2
2019-02-24T03:33:01.913Z,19.2
2019-02-24T03:33:52.539Z,19.2
2019-02-24T03:34:42.393Z,19.2
2019-02-24T03:35:31.666Z,19.2
2019-02-24T03:36:22.316Z,19.2
2019-02-24T03:37:12.049Z,19.1
2019-02-24T03:38:02.089Z,19.2
2019-02-24T03:38:52.416Z,19.2
2019-02-24T03:39:42.754Z,19.1
2019-02-24T03:40:31.977Z,19.1
2019-02-24T03:41:22.533Z,19.1
2019-02-24T03:42:12.916Z,19.1
2019-02-24T03:43:02.427Z,19.1
2019-02-24T03:43:52.894Z,19.1
2019-02-24T03:44:42.518Z,19.1
2019-02-24T03:45:32.893Z,19.1
2019-02-24T03:46:22.665Z,19.1
2019-02-24T03:47:12.969Z,19.1
2019-02-24T03:48:03.025Z,19.1
2019-02-24T03:48:53.388Z,19.1
2019-02-24T03:49:43.417Z,19.1
2019-02-24T03:50:32.668Z,19.1
2019-02-24T03:51:22.991Z,19.1
2019-02-24T03:52:13.595Z,19.1
2019-02-24T03:53:03.236Z,19.1
2019-02-24T03:53:53.436Z,19.1
2019-02-24T03:54:43.548Z,19.1
2019-02-24T03:55:33.533Z,19.1
2019-02-24T03:56:23.911Z,19.1
2019-02-24T03:57:13.413Z,19.1
2019-02-24T03:58:03.503Z,19.1
2019-02-24T03:58:53.491Z,19.1
2019-02-24T03:59:43.848Z,19.1
2019-02-24T04:00:33.630Z,19.1
2019-02-24T04:01:23.974Z,19
2019-02-24T04:02:14.280Z,19
2019-02-24T04:03:04.099Z,19
2019-02-24T04:03:54.148Z,19
2019-02-24T04:04:43.876Z,19
2019-02-24T04:05:34.245Z,19
2019-02-24T04:06:24.266Z,19
2019-02-24T04:07:14.335Z,19
2019-02-24T04:08:04.145Z,19
2019-02-24T04:08:54.526Z,19
2019-02-24T04:09:44.852Z,19
2019-02-24T04:10:33.738Z,19
2019-02-24T04:11:24.342Z,19
2019-02-24T04:12:14.662Z,19
2019-02-24T04:13:04.507Z,18.9
2019-02-24T04:13:54.062Z,18.9
2019-02-24T04:14:44.606Z,18.9
2019-02-24T04:15:34.636Z,18.9
2019-02-24T04:16:24.387Z,18.9
2019-02-24T04:17:14.449Z,18.9
2019-02-24T04:18:05.108Z,18.9
2019-02-24T04:18:54.771Z,18.9
2019-02-24T04:19:44.928Z,18.9
2019-02-24T04:20:35.277Z,18.9
2019-02-24T04:21:25.332Z,18.9
2019-02-24T04:22:15.656Z,18.9
2019-02-24T04:23:04.322Z,18.9
2019-02-24T04:23:55.483Z,18.9
2019-02-24T04:24:45.519Z,18.9
2019-02-24T04:25:35.016Z,18.9
2019-02-24T04:26:25.412Z,18.9
2019-02-24T04:27:17.784Z,18.9
2019-02-24T04:28:05.760Z,18.9
2019-02-24T04:28:56.071Z,18.9
2019-02-24T04:29:45.620Z,18.9
2019-02-24T04:30:34.918Z,18.9
2019-02-24T04:31:26.341Z,18.9
2019-02-24T04:32:16.049Z,18.9
2019-02-24T04:33:06.367Z,18.9
2019-02-24T04:33:56.166Z,18.9
2019-02-24T04:34:45.906Z,18.9
2019-02-24T04:35:36.101Z,18.9
2019-02-24T04:36:26.344Z,18.9
2019-02-24T04:37:16.103Z,18.9
2019-02-24T04:38:06.166Z,18.9
2019-02-24T04:38:55.938Z,18.9
2019-02-24T04:39:45.443Z,18.8
2019-02-24T04:40:36.618Z,18.9
2019-02-24T04:41:26.485Z,18.8
2019-02-24T04:42:16.733Z,18.8
2019-02-24T04:43:07.019Z,18.9
2019-02-24T04:43:57.136Z,18.8
2019-02-24T04:44:46.895Z,18.8
2019-02-24T04:45:36.921Z,18.8
2019-02-24T04:46:25.660Z,18.8
2019-02-24T04:47:17.356Z,18.8
2019-02-24T04:48:06.380Z,18.8
2019-02-24T04:48:56.715Z,18.8
2019-02-24T04:49:46.748Z,18.8
2019-02-24T04:50:36.623Z,18.8
2019-02-24T04:51:26.580Z,18.8
2019-02-24T04:52:16.621Z,18.8
2019-02-24T04:53:07.315Z,18.8
2019-02-24T04:53:56.194Z,18.8
2019-02-24T04:54:46.870Z,18.8
2019-02-24T04:55:37.910Z,18.8
2019-02-24T04:56:27.476Z,18.8
2019-02-24T04:57:17.760Z,18.8
2019-02-24T04:58:07.533Z,18.8
2019-02-24T04:58:57.590Z,18.8
2019-02-24T04:59:47.905Z,18.8
2019-02-24T05:00:38.242Z,18.8
2019-02-24T05:01:28.293Z,18.8
2019-02-24T05:02:18.072Z,18.8
2019-02-24T05:03:08.158Z,18.8
2019-02-24T05:03:57.933Z,18.8
2019-02-24T05:04:47.725Z,18.8
2019-02-24T05:12:18.755Z,18.6
2019-02-24T05:13:08.900Z,18.6
2019-02-24T05:13:58.600Z,18.6
2019-02-24T05:14:49.239Z,18.6
2019-02-24T05:15:38.451Z,18.6
2019-02-24T05:16:29.103Z,18.6
2019-02-24T05:17:19.418Z,18.6
2019-02-24T05:18:08.358Z,18.6
2019-02-24T05:18:58.984Z,18.6
2019-02-24T05:19:49.543Z,18.6
2019-02-24T05:20:39.591Z,18.6
2019-02-24T05:21:29.676Z,18.6
2019-02-24T05:22:19.468Z,18.6
2019-02-24T05:23:09.235Z,18.6
2019-02-24T05:23:59.566Z,18.6
2019-02-24T05:24:49.357Z,18.6
2019-02-24T05:25:39.477Z,18.6
2019-02-24T05:26:29.479Z,18.6
2019-02-24T05:27:19.229Z,18.6
2019-02-24T05:28:09.841Z,18.6
2019-02-24T05:28:59.883Z,18.6
2019-02-24T05:29:53.094Z,18.6
2019-02-24T05:30:39.765Z,18.6
2019-02-24T05:31:30.354Z,18.6
2019-02-24T05:32:19.876Z,18.6
2019-02-24T05:33:09.904Z,18.6
2019-02-24T05:33:59.970Z,18.6
2019-02-24T05:34:50.667Z,18.6
2019-02-24T05:35:40.362Z,18.5
2019-02-24T05:36:32.898Z,18.6
2019-02-24T05:37:20.485Z,18.6
2019-02-24T05:38:10.278Z,18.6
2019-02-24T05:39:00.637Z,18.6
2019-02-24T05:39:50.913Z,18.6
2019-02-24T05:40:40.391Z,18.5
2019-02-24T05:41:30.751Z,18.5
2019-02-24T05:42:21.086Z,18.5
2019-02-24T05:43:11.167Z,18.5
2019-02-24T05:44:00.651Z,18.5
2019-02-24T05:44:51.287Z,18.5
2019-02-24T05:45:41.059Z,18.5
2019-02-24T05:46:30.820Z,18.5
2019-02-24T05:47:20.667Z,18.5
2019-02-24T05:48:11.511Z,18.5
2019-02-24T05:49:01.528Z,18.5
2019-02-24T05:49:51.049Z,18.5
2019-02-24T05:50:41.088Z,18.4
2019-02-24T05:51:30.922Z,18.4
2019-02-24T05:52:21.491Z,18.4
2019-02-24T05:53:10.769Z,18.4
2019-02-24T05:54:00.808Z,18.4
2019-02-24T05:54:53.554Z,18.4
2019-02-24T05:55:41.688Z,18.5
2019-02-24T05:56:32.058Z,18.5
2019-02-24T05:57:21.583Z,18.4
2019-02-24T05:58:11.736Z,18.5
2019-02-24T05:59:01.930Z,18.4
2019-02-24T06:00:01.991Z,18.4
2019-02-24T06:00:41.764Z,18.4
2019-02-24T06:01:32.394Z,18.4
2019-02-24T06:02:22.147Z,18.4
2019-02-24T06:03:11.693Z,18.4
2019-02-24T06:04:01.729Z,18.5
2019-02-24T06:06:00.158Z,18.5
2019-02-24T06:06:49.151Z,18.5
2019-02-24T06:07:40.262Z,18.5
2019-02-24T06:08:30.290Z,18.5
2019-02-24T06:09:20.087Z,18.5
2019-02-24T06:10:10.119Z,18.5
2019-02-24T06:11:00.485Z,18.4
2019-02-24T06:11:50.285Z,18.4
2019-02-24T06:12:40.842Z,18.4
2019-02-24T06:13:30.080Z,18.4
2019-02-24T06:14:20.129Z,18.4
2019-02-24T06:15:10.025Z,18.4
2019-02-24T06:15:59.989Z,18.4
2019-02-24T06:16:50.320Z,18.4
2019-02-24T06:17:40.905Z,18.4
2019-02-24T06:18:30.234Z,18.4
2019-02-24T06:19:20.253Z,18.4
2019-02-24T06:20:10.869Z,18.4
2019-02-24T06:21:00.928Z,18.4
2019-02-24T06:21:50.630Z,18.4
2019-02-24T06:22:39.904Z,18.4
2019-02-24T06:23:31.603Z,18.4
2019-02-24T06:24:20.814Z,18.4
2019-02-24T06:25:11.102Z,18.4
2019-02-24T06:26:01.730Z,18.4
2019-02-24T06:26:51.594Z,18.4
2019-02-24T06:27:41.582Z,18.4
2019-02-24T06:28:31.994Z,18.4
2019-02-24T06:29:21.439Z,18.4
2019-02-24T06:30:12.372Z,18.4
2019-02-24T06:31:01.814Z,18.4
2019-02-24T06:31:51.072Z,18.4
2019-02-24T06:32:41.682Z,18.4
2019-02-24T06:33:32.247Z,18.4
2019-02-24T06:34:21.495Z,18.4
2019-02-24T06:35:11.826Z,18.4
2019-02-24T06:36:01.361Z,18.4
2019-02-24T06:36:51.947Z,18.4
2019-02-24T06:37:41.999Z,18.4
2019-02-24T06:38:32.576Z,18.4
2019-02-24T06:39:21.851Z,18.4
2019-02-24T06:40:11.959Z,18.4
2019-02-24T06:41:03.896Z,18.4
2019-02-24T06:41:52.823Z,18.4
2019-02-24T06:42:42.324Z,18.4
2019-02-24T06:43:31.345Z,18.4
2019-02-24T06:44:22.736Z,18.4
2019-02-24T06:45:12.211Z,18.4
2019-02-24T06:46:01.971Z,18.4
2019-02-24T06:46:52.341Z,18.4
2019-02-24T06:47:43.044Z,18.4
2019-02-24T06:48:33.035Z,18.4
2019-02-24T06:49:22.028Z,18.4
2019-02-24T06:50:12.879Z,18.4
2019-02-24T06:51:02.651Z,18.4
2019-02-24T06:51:52.992Z,18.4
2019-02-24T06:52:43.506Z,18.4
2019-02-24T06:53:32.591Z,18.4
2019-02-24T06:54:23.100Z,18.4
2019-02-24T06:55:12.680Z,18.4
2019-02-24T06:56:02.975Z,18.4
2019-02-24T06:56:52.995Z,18.4
2019-02-24T06:57:43.365Z,18.4
2019-02-24T06:58:32.648Z,18.4
2019-02-24T06:59:22.175Z,18.4
2019-02-24T07:00:20.315Z,18.4
2019-02-24T07:01:03.135Z,18.4
2019-02-24T07:01:52.296Z,18.4
2019-02-24T07:02:43.740Z,18.4
2019-02-24T07:03:33.049Z,18.4
2019-02-24T07:05:59.900Z,18.4
2019-02-24T07:06:49.197Z,18.4
2019-02-24T07:07:39.508Z,18.4
2019-02-24T07:08:29.297Z,18.4
2019-02-24T07:09:21.580Z,18.4
2019-02-24T07:10:10.195Z,18.4
2019-02-24T07:10:59.402Z,18.4
2019-02-24T07:11:49.499Z,18.4
2019-02-24T07:12:39.877Z,18.4
2019-02-24T07:13:30.396Z,18.4
2019-02-24T07:14:19.349Z,18.4
2019-02-24T07:15:10.061Z,18.4
2019-02-24T07:16:00.038Z,18.4
2019-02-24T07:16:50.334Z,18.4
2019-02-24T07:17:41.197Z,18.4
2019-02-24T07:18:30.469Z,18.4
2019-02-24T07:19:19.689Z,18.4
2019-02-24T07:20:11.346Z,18.4
2019-02-24T07:21:01.184Z,18.4
2019-02-24T07:21:51.191Z,18.4
2019-02-24T07:22:40.655Z,18.4
2019-02-24T07:23:31.559Z,18.4
2019-02-24T07:24:21.383Z,18.4
2019-02-24T07:25:10.934Z,18.4
2019-02-24T07:26:01.181Z,18.4
2019-02-24T07:26:51.513Z,18.4
2019-02-24T07:27:41.296Z,18.4
2019-02-24T07:28:31.306Z,18.4
2019-02-24T07:29:21.953Z,18.4
2019-02-24T07:30:11.194Z,18.4
2019-02-24T07:31:02.128Z,18.4
2019-02-24T07:31:51.584Z,18.4
2019-02-24T07:32:41.931Z,18.4
2019-02-24T07:33:32.269Z,18.4
2019-02-24T07:34:21.814Z,18.5
2019-02-24T07:35:12.383Z,18.5
2019-02-24T07:36:02.173Z,18.5
2019-02-24T07:36:52.276Z,18.4
2019-02-24T07:37:41.729Z,18.5
2019-02-24T07:38:32.575Z,18.5
2019-02-24T07:39:22.658Z,18.5
2019-02-24T07:40:12.698Z,18.5
2019-02-24T07:41:02.213Z,18.5
2019-02-24T07:41:52.228Z,18.5
2019-02-24T07:42:42.863Z,18.6
2019-02-24T07:43:31.940Z,18.6
2019-02-24T07:44:22.216Z,18.6
2019-02-24T07:45:12.763Z,18.6
2019-02-24T07:46:02.023Z,18.6
2019-02-24T07:46:51.825Z,18.6
2019-02-24T07:47:42.638Z,18.6
2019-02-24T07:48:32.445Z,18.6
2019-02-24T07:49:23.026Z,18.6
2019-02-24T07:50:12.620Z,18.6
2019-02-24T07:51:02.345Z,18.6
2019-02-24T07:51:53.515Z,18.6
2019-02-24T07:52:42.767Z,18.6
2019-02-24T07:53:33.295Z,18.6
2019-02-24T07:54:23.640Z,18.6
2019-02-24T07:55:13.414Z,18.6
2019-02-24T07:56:02.712Z,18.6
2019-02-24T07:56:53.559Z,18.6
2019-02-24T08:06:54.542Z,18.8
2019-02-24T08:07:44.264Z,18.8
2019-02-24T08:08:34.040Z,18.8
2019-02-24T08:10:14.431Z,18.8
2019-02-24T08:11:04.479Z,18.8
2019-02-24T08:11:54.561Z,18.8
2019-02-24T08:12:44.609Z,18.8
2019-02-24T08:13:34.648Z,18.8
2019-02-24T08:14:24.731Z,18.8
2019-02-24T08:15:15.092Z,18.8
2019-02-24T08:16:05.116Z,18.8
2019-02-24T08:16:54.948Z,18.8
2019-02-24T08:17:44.716Z,18.8
2019-02-24T08:18:35.029Z,18.8
2019-02-24T08:19:25.078Z,18.8
2019-02-24T08:20:15.141Z,18.8
2019-02-24T08:21:06.697Z,18.8
2019-02-24T08:21:55.243Z,18.8
2019-02-24T08:22:45.546Z,18.8
2019-02-24T08:23:35.133Z,18.8
2019-02-24T08:24:25.401Z,18.8
2019-02-24T08:25:15.161Z,18.8
2019-02-24T08:26:05.781Z,18.8
2019-02-24T08:26:55.858Z,18.8
2019-02-24T08:27:45.890Z,18.8
2019-02-24T08:28:35.392Z,18.8
2019-02-24T08:29:25.238Z,18.8
2019-02-24T08:30:16.075Z,18.8
2019-02-24T08:31:05.868Z,18.8
2019-02-24T08:31:55.606Z,18.8
2019-02-24T08:32:45.995Z,18.8
2019-02-24T08:33:36.280Z,18.8
2019-02-24T08:34:25.795Z,18.8
2019-02-24T08:35:15.915Z,18.8
2019-02-24T08:36:06.214Z,18.8
2019-02-24T08:36:56.070Z,18.8
2019-02-24T08:37:46.020Z,18.8
2019-02-24T08:38:36.340Z,18.8
2019-02-24T08:39:26.437Z,18.8
2019-02-24T08:40:16.322Z,18.9
2019-02-24T08:41:06.297Z,18.8
2019-02-24T08:41:56.297Z,18.9
2019-02-24T08:42:46.902Z,18.9
2019-02-24T08:43:36.675Z,18.9
2019-02-24T08:44:29.069Z,18.9
2019-02-24T08:45:16.279Z,18.9
2019-02-24T08:46:06.642Z,18.9
2019-02-24T08:46:56.430Z,18.9
2019-02-24T08:47:46.329Z,18.9
2019-02-24T08:48:36.059Z,18.9
2019-02-24T08:49:26.872Z,18.9
2019-02-24T08:50:17.134Z,18.9
2019-02-24T08:51:07.522Z,18.9
2019-02-24T08:51:57.625Z,18.9
2019-02-24T08:52:47.602Z,18.9
2019-02-24T08:53:37.417Z,18.9
2019-02-24T08:54:27.716Z,18.9
2019-02-24T08:55:17.556Z,18.9
2019-02-24T08:56:07.387Z,18.9
2019-02-24T08:56:59.784Z,18.9
2019-02-24T08:57:47.925Z,19
2019-02-24T08:58:38.037Z,19
2019-02-24T08:59:28.071Z,19
2019-02-24T09:00:17.889Z,19
2019-02-24T09:01:07.903Z,19
2019-02-24T09:01:58.258Z,19
2019-02-24T09:02:47.817Z,19
2019-02-24T09:03:37.038Z,19
2019-02-24T09:04:28.126Z,19
2019-02-24T09:05:16.921Z,19.1
2019-02-24T09:06:08.502Z,19.1
2019-02-24T09:06:58.331Z,19.1
2019-02-24T09:07:48.641Z,19
2019-02-24T09:08:37.631Z,19.1
2019-02-24T09:09:28.168Z,19.1
2019-02-24T09:10:18.783Z,19.1
2019-02-24T09:11:08.878Z,19.1
2019-02-24T09:11:58.145Z,19.1
2019-02-24T09:12:48.414Z,19.1
2019-02-24T09:13:38.791Z,19.1
2019-02-24T09:14:29.105Z,19.1
2019-02-24T09:15:18.701Z,19.1
2019-02-24T09:16:09.306Z,19.1
2019-02-24T09:16:58.973Z,19.1
2019-02-24T09:17:49.122Z,19.1
2019-02-24T09:18:39.372Z,19.1
2019-02-24T09:19:29.197Z,19.1
2019-02-24T09:20:19.321Z,19.1
2019-02-24T09:21:09.313Z,19.1
2019-02-24T09:21:59.648Z,19.1
2019-02-24T09:22:49.402Z,19.1
2019-02-24T09:23:39.133Z,19.1
2019-02-24T09:24:28.417Z,19.1
2019-02-24T09:25:18.813Z,19.1
2019-02-24T09:26:09.613Z,19.1
2019-02-24T09:26:59.640Z,19.2
2019-02-24T09:27:49.977Z,19.2
2019-02-24T09:28:39.461Z,19.2
2019-02-24T09:29:28.846Z,19.2
2019-02-24T09:30:19.385Z,19.3
2019-02-24T09:31:09.200Z,19.2
2019-02-24T09:31:59.204Z,19.3
2019-02-24T09:32:49.469Z,19.3
2019-02-24T09:33:40.439Z,19.3
2019-02-24T09:34:30.470Z,19.3
2019-02-24T09:35:19.245Z,19.3
2019-02-24T09:36:09.977Z,19.3
2019-02-24T09:37:00.042Z,19.3
2019-02-24T09:37:50.369Z,19.3
2019-02-24T09:38:40.492Z,19.3
2019-02-24T09:39:30.475Z,19.3
2019-02-24T09:40:20.537Z,19.3
2019-02-24T09:41:10.327Z,19.3
2019-02-24T09:42:00.489Z,19.4
2019-02-24T09:42:50.440Z,19.4
2019-02-24T09:43:41.044Z,19.4
2019-02-24T09:44:30.356Z,19.4
2019-02-24T09:45:21.164Z,19.4
2019-02-24T09:46:11.272Z,19.4
2019-02-24T09:47:01.274Z,19.4
2019-02-24T09:47:53.427Z,19.4
2019-02-24T09:48:41.416Z,19.4
2019-02-24T09:49:31.282Z,19.4
2019-02-24T09:50:21.482Z,19.4
2019-02-24T09:51:11.288Z,19.4
2019-02-24T09:52:01.344Z,19.4
2019-02-24T09:52:50.859Z,19.4
2019-02-24T09:53:41.724Z,19.4
2019-02-24T09:54:31.771Z,19.4
2019-02-24T09:55:21.853Z,19.4
2019-02-24T09:56:11.886Z,19.4
2019-02-24T09:57:01.660Z,19.4
2019-02-24T09:57:51.759Z,19.4
2019-02-24T09:58:42.070Z,19.4
2019-02-24T09:59:31.568Z,19.4
2019-02-24T10:00:24.371Z,19.4
2019-02-24T10:01:17.759Z,19.4
2019-02-24T10:02:02.285Z,19.4
2019-02-24T10:02:52.049Z,19.4
2019-02-24T10:03:41.848Z,19.4
2019-02-24T10:04:32.191Z,19.4
2019-02-24T10:07:00.007Z,19.4
2019-02-24T10:07:49.715Z,19.4
2019-02-24T10:08:40.333Z,19.4
2019-02-24T10:09:30.105Z,19.4
2019-02-24T10:10:20.172Z,19.4
2019-02-24T10:11:10.225Z,19.5
2019-02-24T10:12:00.357Z,19.5
2019-02-24T10:12:50.733Z,19.5
2019-02-24T10:13:40.520Z,19.5
2019-02-24T10:14:30.517Z,19.5
2019-02-24T10:15:20.862Z,19.5
2019-02-24T10:16:10.835Z,19.5
2019-02-24T10:17:00.411Z,19.5
2019-02-24T10:17:50.737Z,19.5
2019-02-24T10:18:40.462Z,19.6
2019-02-24T10:19:32.240Z,19.5
2019-02-24T10:20:21.141Z,19.5
2019-02-24T10:21:10.484Z,19.6
2019-02-24T10:22:00.966Z,19.6
2019-02-24T10:22:51.303Z,19.6
2019-02-24T10:23:40.819Z,19.6
2019-02-24T10:24:31.162Z,19.6
2019-02-24T10:25:21.474Z,19.6
2019-02-24T10:26:10.684Z,19.6
2019-02-24T10:27:01.574Z,19.6
2019-02-24T10:27:51.637Z,19.6
2019-02-24T10:28:41.692Z,19.6
2019-02-24T10:29:31.479Z,19.6
2019-02-24T10:30:21.822Z,19.6
2019-02-24T10:31:20.807Z,19.6
2019-02-24T10:32:01.185Z,19.6
2019-02-24T10:32:51.777Z,19.6
2019-02-24T10:33:41.474Z,19.6
2019-02-24T10:34:31.531Z,19.6
2019-02-24T10:35:21.336Z,19.5
2019-02-24T10:36:11.977Z,19.5
2019-02-24T10:37:02.249Z,19.5
2019-02-24T10:37:52.044Z,19.5
2019-02-24T10:38:42.081Z,19.5
2019-02-24T10:39:36.374Z,19.5
2019-02-24T10:40:21.973Z,19.5
2019-02-24T10:41:11.998Z,19.5
2019-02-24T10:42:02.648Z,19.5
2019-02-24T10:42:52.103Z,19.5
2019-02-24T10:43:42.448Z,19.5
2019-02-24T10:44:32.538Z,19.5
2019-02-24T10:45:22.568Z,19.5
2019-02-24T10:46:14.768Z,19.5
2019-02-24T10:47:05.261Z,19.5
2019-02-24T10:47:52.040Z,19.5
2019-02-24T10:48:42.853Z,19.5
2019-02-24T10:49:33.129Z,19.5
2019-02-24T10:50:22.901Z,19.5
2019-02-24T10:51:12.418Z,19.5
2019-02-24T10:52:02.518Z,19.5
2019-02-24T10:52:53.413Z,19.6
2019-02-24T10:53:43.403Z,19.6
2019-02-24T10:54:33.215Z,19.6
2019-02-24T10:55:23.553Z,19.6
2019-02-24T10:56:13.296Z,19.6
2019-02-24T10:57:03.055Z,19.6
2019-02-24T10:57:53.421Z,19.6
2019-02-24T10:58:43.488Z,19.6
2019-02-24T10:59:33.790Z,19.6
2019-02-24T11:00:23.456Z,19.6
2019-02-24T11:01:13.640Z,19.6
2019-02-24T11:02:03.459Z,19.6
2019-02-24T11:02:53.750Z,19.6
2019-02-24T11:03:43.810Z,19.6
2019-02-24T11:04:33.891Z,19.6
2019-02-24T11:05:23.985Z,19.6
2019-02-24T11:06:13.688Z,19.6
2019-02-24T11:07:04.067Z,19.6
2019-02-24T11:07:54.106Z,19.6
2019-02-24T11:08:44.190Z,19.6
2019-02-24T11:09:34.177Z,19.6
2019-02-24T11:10:24.522Z,19.6
2019-02-24T11:11:14.327Z,19.7
2019-02-24T11:12:04.650Z,19.7
2019-02-24T11:12:54.408Z,19.7
2019-02-24T11:13:44.464Z,19.7
2019-02-24T11:14:34.534Z,19.7
2019-02-24T11:15:23.666Z,19.7
2019-02-24T11:16:13.939Z,19.7
2019-02-24T11:17:18.572Z,19.7
2019-02-24T11:17:54.760Z,19.7
2019-02-24T11:18:44.609Z,19.8
2019-02-24T11:19:35.146Z,19.8
2019-02-24T11:20:24.992Z,19.8
2019-02-24T11:21:15.021Z,19.8
2019-02-24T11:22:04.839Z,19.8
2019-02-24T11:23:09.212Z,19.8
2019-02-24T11:23:45.159Z,19.8
2019-02-24T11:24:34.943Z,19.8
2019-02-24T11:25:26.866Z,19.8
2019-02-24T11:26:15.318Z,19.8
2019-02-24T11:27:04.899Z,19.8
2019-02-24T11:27:55.217Z,19.8
2019-02-24T11:28:45.216Z,19.8
2019-02-24T11:29:35.681Z,19.8
2019-02-24T11:30:25.359Z,19.9
2019-02-24T11:31:15.564Z,19.9